Hauptseite
METAR-TAF:

METAR-TAF

Flughäfen :

Kuwait-Stadt, Kuwait

Flughafen Kuwait

Breite: 29-13N, Länge: 047-59E, Höhe: 55 m

Beobachtung

Neuester Wetterbericht von vor 10 Minuten, um 14:00 UTC
Wind 4 kt aus Nord
Temperatur 34°C
Luftfeuchtigkeit 14%
Luftdruck 1012 hPa
Sichtweite 10 km oder mehr
keine Wolken unter 1500 m und keine Kumulonimbus oder Gewitterwolken

METAR: OKBK 201400Z 35004KT CAVOK 34/03 Q1012 NOSIG

Zeit: 17:10 (14:10 UTC)

Prognose

Neuester Wetterbericht von vor 3 Stunden und 25 Minuten, um 10:45 UTC
Gültige Prognose vom 20 um 12 UTC bis 21 um 18 UTC
Wind 8 kt aus Nord/Nordwest
Sichtweite: 7000 m
Himmel klar
Zeitweise
vom 20 um 13 UTC bis 20 um 22 UTC
Wind 3 kt aus unterschiedlichen Richtungen

TAF: OKBK 201045Z 2012/2118 34008KT 7000 SKC TEMPO 2013/2022 VRB03KT

Wetterbeobachtungen und Prognosen von mehr als 4000 Flughäfen (METAR und TAF Bericht).

Die verfügbaren Stationen werden durch gelbe und rote Markierungen auf der Karte dargestellt.

Führen Sie die Maus auf sie, um den Namen der Station zu sehen.

Darauf klicken, um die Beobachtung von Wetterbeobachtungen und Prognosen zu sehen.

Um die Karte zu ändern : klicken Sie auf den grünen Tasten mit einem schwarzen Kreuz Zum Vergrößern, auf den grünen Button mit einem Gedankenstrich zu verkleinern, oder auf die grünen Pfeile für benachbarte Karten.


METAR-TAF: